createdAt,value
2022-10-05T08:04:31.152Z,101530.17
2022-10-05T08:05:01.562Z,101532.97
2022-10-05T08:05:32.007Z,101528.74
2022-10-05T08:06:02.455Z,101526.02
2022-10-05T08:06:32.868Z,101525.84
2022-10-05T08:07:03.331Z,101523.28
2022-10-05T08:07:33.756Z,101522.78
2022-10-05T08:08:04.192Z,101516.22
2022-10-05T08:08:34.616Z,101516.20
2022-10-05T08:09:05.037Z,101515.17
2022-10-05T08:09:35.484Z,101510.12
2022-10-05T08:10:05.920Z,101510.46
2022-10-05T08:10:36.335Z,101513.61
2022-10-05T08:11:06.766Z,101510.08
2022-10-05T08:11:37.198Z,101508.55
2022-10-05T08:12:07.618Z,101510.54
2022-10-05T08:12:38.039Z,101505.33
2022-10-05T08:13:08.462Z,101506.83
2022-10-05T08:13:38.886Z,101500.61
2022-10-05T08:14:09.319Z,101497.72
2022-10-05T08:14:39.768Z,101495.71
2022-10-05T08:15:10.188Z,101496.70
2022-10-05T08:15:40.660Z,101496.51
2022-10-05T08:16:11.076Z,101495.31
2022-10-05T08:16:41.464Z,101493.81
2022-10-05T08:17:11.907Z,101495.30
2022-10-05T08:17:42.364Z,101493.43
2022-10-05T08:18:12.787Z,101491.09
2022-10-05T08:18:43.236Z,101494.58
2022-10-05T08:19:13.666Z,101495.23
2022-10-05T08:19:44.181Z,101492.22
2022-10-05T08:20:14.597Z,101489.52
2022-10-05T08:20:45.061Z,101491.68
2022-10-05T08:21:15.485Z,101491.86
2022-10-05T08:21:46.335Z,101487.98
2022-10-05T08:22:16.887Z,101487.49
2022-10-05T08:22:47.311Z,101490.52
2022-10-05T08:23:17.732Z,101491.15
2022-10-05T08:23:48.168Z,101493.18
2022-10-05T08:24:18.607Z,101485.95
2022-10-05T08:24:49.041Z,101483.58
2022-10-05T08:25:19.465Z,101484.94
2022-10-05T08:25:49.892Z,101483.39
2022-10-05T08:26:20.360Z,101477.83
2022-10-05T08:26:50.801Z,101479.33
2022-10-05T08:27:21.226Z,101477.99
2022-10-05T08:27:51.651Z,101473.62
2022-10-05T08:28:22.172Z,101482.00
2022-10-05T08:28:52.587Z,101479.28
2022-10-05T08:29:23.115Z,101479.46
2022-10-05T08:29:53.588Z,101480.62
2022-10-05T08:30:24.011Z,101480.95
2022-10-05T08:30:54.514Z,101480.45
2022-10-05T08:31:24.983Z,101477.42
2022-10-05T08:31:55.437Z,101473.89
2022-10-05T08:32:25.856Z,101472.38
2022-10-05T08:32:56.290Z,101477.06
2022-10-05T08:33:26.710Z,101477.73
2022-10-05T08:33:57.138Z,101474.55
2022-10-05T08:34:27.611Z,101480.61
2022-10-05T08:34:58.087Z,101479.41
2022-10-05T08:35:28.483Z,101477.73
2022-10-05T08:35:58.918Z,101475.88
2022-10-05T08:36:29.345Z,101478.59
2022-10-05T08:36:59.779Z,101474.52
2022-10-05T08:37:30.213Z,101473.02
2022-10-05T08:38:00.660Z,101476.36
2022-10-05T08:38:31.089Z,101472.34
2022-10-05T08:39:01.517Z,101473.47
2022-10-05T08:39:31.948Z,101468.95
2022-10-05T08:40:02.390Z,101470.95
2022-10-05T08:40:32.815Z,101470.77
2022-10-05T08:41:03.288Z,101470.75
2022-10-05T08:41:33.729Z,101473.44
2022-10-05T08:42:04.155Z,101472.62
2022-10-05T08:42:34.586Z,101473.56
2022-10-05T08:43:05.011Z,101473.05
2022-10-05T08:43:35.666Z,101472.88
2022-10-05T08:44:06.177Z,101472.20
2022-10-05T08:44:36.601Z,101474.05
2022-10-05T08:45:07.063Z,101471.52
2022-10-05T08:45:37.492Z,101475.09
2022-10-05T08:46:07.981Z,101471.05
2022-10-05T08:46:38.405Z,101465.77
2022-10-05T08:47:08.799Z,101464.47
2022-10-05T08:47:39.235Z,101467.66
2022-10-05T08:48:09.655Z,101460.94
2022-10-05T08:48:40.076Z,101460.89
2022-10-05T08:49:10.498Z,101462.42
2022-10-05T08:49:40.926Z,101456.02
2022-10-05T08:50:11.395Z,101463.27
2022-10-05T08:50:41.827Z,101463.25
2022-10-05T08:51:12.281Z,101462.72
2022-10-05T08:51:42.706Z,101463.06
2022-10-05T08:52:13.125Z,101460.20
2022-10-05T08:52:43.556Z,101461.38
2022-10-05T08:53:13.996Z,101462.35
2022-10-05T08:53:44.412Z,101458.69
2022-10-05T08:54:14.838Z,101458.48
2022-10-05T08:54:45.274Z,101458.98
2022-10-05T08:55:15.723Z,101453.77
2022-10-05T08:55:46.147Z,101453.77
2022-10-05T08:56:20.404Z,101450.38
2022-10-05T08:56:51.921Z,101448.55
2022-10-05T08:57:22.346Z,101450.69
2022-10-05T08:57:52.771Z,101448.53
2022-10-05T08:58:23.189Z,101449.05
2022-10-05T08:58:53.628Z,101451.02
2022-10-05T08:59:24.083Z,101455.23
2022-10-05T08:59:54.509Z,101451.03
2022-10-05T09:00:24.943Z,101454.05
2022-10-05T09:00:55.361Z,101448.33
2022-10-05T09:01:25.801Z,101451.02
2022-10-05T09:01:56.302Z,101445.97
2022-10-05T09:02:26.800Z,101448.83
2022-10-05T09:02:57.223Z,101447.31
2022-10-05T09:03:32.163Z,101446.47
2022-10-05T09:04:02.942Z,101445.12
2022-10-05T09:04:33.368Z,101445.12
2022-10-05T09:05:03.802Z,101446.61
2022-10-05T09:05:34.341Z,101447.62
2022-10-05T09:06:04.688Z,101445.29
2022-10-05T09:06:35.114Z,101446.42
2022-10-05T09:07:05.546Z,101443.92
2022-10-05T09:07:35.982Z,101448.27
2022-10-05T09:08:06.425Z,101448.61
2022-10-05T09:08:36.869Z,101449.95
2022-10-05T09:09:07.291Z,101451.62
2022-10-05T09:09:37.767Z,101450.77
2022-10-05T09:10:08.189Z,101452.78
2022-10-05T09:10:38.634Z,101455.83
2022-10-05T09:11:09.095Z,101455.30
2022-10-05T09:11:40.244Z,101454.80
2022-10-05T09:12:10.674Z,101457.66
2022-10-05T09:12:41.149Z,101456.14
2022-10-05T09:13:11.599Z,101455.28
2022-10-05T09:13:42.207Z,101458.31
2022-10-05T09:14:12.640Z,101455.12
2022-10-05T09:14:43.063Z,101456.97
2022-10-05T09:15:25.431Z,101455.61
2022-10-05T09:15:48.919Z,101456.11
2022-10-05T09:16:19.406Z,101453.75
2022-10-05T09:16:49.826Z,101450.39
2022-10-05T09:17:20.249Z,101449.20
2022-10-05T09:17:50.667Z,101450.38
2022-10-05T09:18:21.094Z,101455.42
2022-10-05T09:18:51.528Z,101453.61
2022-10-05T09:19:21.952Z,101455.59
2022-10-05T09:19:52.389Z,101456.45
2022-10-05T09:20:22.805Z,101455.63
2022-10-05T09:20:53.366Z,101458.48
2022-10-05T09:21:23.746Z,101455.62
2022-10-05T09:21:54.168Z,101455.62
2022-10-05T09:22:24.620Z,101460.51
2022-10-05T09:22:55.052Z,101459.66
2022-10-05T09:23:25.499Z,101457.63
2022-10-05T09:23:55.917Z,101451.57
2022-10-05T09:24:26.382Z,101450.08
2022-10-05T09:24:56.819Z,101454.08
2022-10-05T09:25:27.243Z,101452.08
2022-10-05T09:25:57.711Z,101454.93
2022-10-05T09:26:28.117Z,101456.61
2022-10-05T09:26:58.545Z,101452.91
2022-10-05T09:27:28.964Z,101454.93
2022-10-05T09:27:59.449Z,101453.25
2022-10-05T09:28:29.879Z,101454.39
2022-10-05T09:29:00.249Z,101454.22
2022-10-05T09:29:30.685Z,101448.36
2022-10-05T09:30:01.114Z,101446.31
2022-10-05T09:30:31.554Z,101448.33
2022-10-05T09:31:02.046Z,101440.23
2022-10-05T09:31:32.539Z,101440.89
2022-10-05T09:32:02.993Z,101439.75
2022-10-05T09:32:33.426Z,101439.38
2022-10-05T09:33:03.850Z,101436.03
2022-10-05T09:33:34.271Z,101443.77
2022-10-05T09:34:04.698Z,101439.40
2022-10-05T09:34:35.407Z,101439.88
2022-10-05T09:35:06.234Z,101440.23
2022-10-05T09:35:36.977Z,101443.60
2022-10-05T09:36:07.794Z,101443.80
2022-10-05T09:36:38.606Z,101442.76
2022-10-05T09:37:09.025Z,101440.59
2022-10-05T09:37:39.505Z,101437.22
2022-10-05T09:38:09.925Z,101437.90
2022-10-05T09:38:40.358Z,101437.90
2022-10-05T09:39:10.786Z,101437.22
2022-10-05T09:39:41.232Z,101437.91
2022-10-05T09:40:11.743Z,101437.69
2022-10-05T09:40:42.174Z,101439.85
2022-10-05T09:41:12.629Z,101433.94
2022-10-05T09:41:43.053Z,101438.58
2022-10-05T09:42:13.494Z,101438.59
2022-10-05T09:42:43.917Z,101438.73
2022-10-05T09:43:14.347Z,101444.05
2022-10-05T09:43:44.766Z,101436.81
2022-10-05T09:44:15.284Z,101441.49
2022-10-05T09:44:45.704Z,101438.93
2022-10-05T09:45:21.043Z,101438.58
2022-10-05T09:45:51.509Z,101438.06
2022-10-05T09:46:21.912Z,101437.18
2022-10-05T09:46:52.321Z,101437.87
2022-10-05T09:47:22.821Z,101436.47
2022-10-05T09:47:53.264Z,101439.00
2022-10-05T09:48:23.702Z,101435.80
2022-10-05T09:48:54.132Z,101436.14
2022-10-05T09:49:24.555Z,101437.84
2022-10-05T09:49:54.982Z,101434.15
2022-10-05T09:50:25.435Z,101432.64
2022-10-05T09:50:55.869Z,101429.98
2022-10-05T09:51:26.487Z,101430.64
2022-10-05T09:51:56.853Z,101429.12
2022-10-05T09:52:27.272Z,101431.12
2022-10-05T09:52:57.693Z,101428.26
2022-10-05T09:53:28.114Z,101430.11
2022-10-05T09:53:58.554Z,101427.61
2022-10-05T09:54:28.986Z,101425.10
2022-10-05T09:54:59.416Z,101422.07
2022-10-05T09:55:29.864Z,101422.09
2022-10-05T09:56:00.293Z,101420.73
2022-10-05T09:56:30.738Z,101423.58
2022-10-05T09:57:01.223Z,101419.20
2022-10-05T09:57:31.644Z,101418.05
2022-10-05T09:58:02.074Z,101415.37
2022-10-05T09:58:32.517Z,101417.40
2022-10-05T09:59:03.794Z,101420.39
2022-10-05T09:59:34.194Z,101419.25
2022-10-05T10:00:04.741Z,101415.58
2022-10-05T10:00:35.172Z,101419.93
2022-10-05T10:01:10.023Z,101417.93
2022-10-05T10:01:41.019Z,101417.42
2022-10-05T10:02:12.634Z,101416.93
2022-10-05T10:02:43.261Z,101416.59
2022-10-05T10:03:13.779Z,101414.26
2022-10-05T10:03:44.162Z,101411.06
2022-10-05T10:04:14.586Z,101412.74
2022-10-05T10:04:45.025Z,101417.59
2022-10-05T10:05:15.518Z,101409.19
2022-10-05T10:05:45.977Z,101414.05
2022-10-05T10:06:16.389Z,101415.06
2022-10-05T10:06:46.911Z,101413.55
2022-10-05T10:07:18.232Z,101410.36
2022-10-05T10:07:48.655Z,101412.05
2022-10-05T10:08:19.111Z,101411.69
2022-10-05T10:08:49.542Z,101413.34
2022-10-05T10:09:19.965Z,101415.52
2022-10-05T10:09:50.408Z,101413.86
2022-10-05T10:10:20.830Z,101411.50
2022-10-05T10:10:51.261Z,101412.69
2022-10-05T10:11:21.687Z,101413.86
2022-10-05T10:11:52.159Z,101413.50
2022-10-05T10:12:22.572Z,101413.84
2022-10-05T10:12:52.995Z,101416.37
2022-10-05T10:13:23.430Z,101414.34
2022-10-05T10:13:53.884Z,101409.85
2022-10-05T10:14:24.278Z,101412.03
2022-10-05T10:14:57.214Z,101409.38
2022-10-05T10:15:29.796Z,101411.55
2022-10-05T10:16:00.306Z,101412.42
2022-10-05T10:16:30.731Z,101411.89
2022-10-05T10:17:01.221Z,101411.09
2022-10-05T10:17:31.683Z,101412.41
2022-10-05T10:18:02.108Z,101411.94
2022-10-05T10:18:32.544Z,101414.11
2022-10-05T10:19:03.003Z,101416.14
2022-10-05T10:19:33.425Z,101418.52
2022-10-05T10:20:03.847Z,101417.86
2022-10-05T10:20:34.308Z,101419.02
2022-10-05T10:21:04.735Z,101420.20
2022-10-05T10:21:35.169Z,101423.92
2022-10-05T10:22:05.632Z,101422.43
2022-10-05T10:22:39.636Z,101424.11
2022-10-05T10:23:11.362Z,101424.80
2022-10-05T10:23:41.786Z,101429.33
2022-10-05T10:24:12.206Z,101429.67
2022-10-05T10:24:42.632Z,101430.69
2022-10-05T10:25:13.070Z,101429.33
2022-10-05T10:25:43.473Z,101432.51
2022-10-05T10:26:13.897Z,101430.81
2022-10-05T10:26:44.324Z,101433.17
2022-10-05T10:27:14.761Z,101435.17
2022-10-05T10:27:49.086Z,101432.67
2022-10-05T10:28:20.684Z,101432.16
2022-10-05T10:28:51.193Z,101432.80
2022-10-05T10:29:21.651Z,101428.09
2022-10-05T10:29:52.053Z,101437.36
2022-10-05T10:30:24.103Z,101430.48
2022-10-05T10:30:56.727Z,101444.79
2022-10-05T10:31:27.153Z,101434.51
2022-10-05T10:31:57.584Z,101437.56
2022-10-05T10:32:28.027Z,101438.70
2022-10-05T10:32:58.449Z,101438.52
2022-10-05T10:33:28.875Z,101438.34
2022-10-05T10:33:59.327Z,101437.55
2022-10-05T10:34:29.749Z,101438.88
2022-10-05T10:35:00.187Z,101438.08
2022-10-05T10:36:03.088Z,101438.24
2022-10-05T10:36:36.309Z,101440.11
2022-10-05T10:37:06.732Z,101440.61
2022-10-05T10:37:37.213Z,101441.96
2022-10-05T10:38:07.626Z,101443.98
2022-10-05T10:38:38.063Z,101440.80
2022-10-05T10:39:08.489Z,101440.62
2022-10-05T10:39:38.982Z,101442.16
2022-10-05T10:40:09.408Z,101439.45
2022-10-05T10:40:39.830Z,101438.58
2022-10-05T10:41:10.260Z,101438.77
2022-10-05T10:41:40.699Z,101438.59
2022-10-05T10:42:11.141Z,101438.09
2022-10-05T10:42:41.576Z,101438.11
2022-10-05T10:43:12.001Z,101435.28
2022-10-05T10:43:42.427Z,101436.14
2022-10-05T10:44:12.843Z,101430.92
2022-10-05T10:44:43.263Z,101432.45
2022-10-05T10:45:13.717Z,101430.27
2022-10-05T10:45:44.138Z,101434.00
2022-10-05T10:46:14.596Z,101434.83
2022-10-05T10:46:45.133Z,101433.48
2022-10-05T10:47:15.565Z,101432.02
2022-10-05T10:47:46.007Z,101431.01
2022-10-05T10:48:16.428Z,101431.00
2022-10-05T10:48:46.843Z,101429.83
2022-10-05T10:49:17.291Z,101429.31
2022-10-05T10:49:47.698Z,101431.27
2022-10-05T10:50:18.122Z,101429.10
2022-10-05T10:50:48.559Z,101428.45
2022-10-05T10:51:18.982Z,101428.24
2022-10-05T10:51:49.422Z,101430.11
2022-10-05T10:52:19.871Z,101430.94
2022-10-05T10:52:50.326Z,101426.08
2022-10-05T10:53:20.727Z,101421.38
2022-10-05T10:53:51.154Z,101424.23
2022-10-05T10:54:21.578Z,101424.91
2022-10-05T10:54:52.000Z,101424.56
2022-10-05T10:55:22.433Z,101420.58
2022-10-05T10:55:52.883Z,101422.91
2022-10-05T10:56:23.342Z,101420.55
2022-10-05T10:56:53.758Z,101425.27
2022-10-05T10:57:24.202Z,101422.58
2022-10-05T10:57:54.649Z,101423.61
2022-10-05T10:58:25.136Z,101426.95
2022-10-05T10:58:55.532Z,101425.28
2022-10-05T10:59:29.237Z,101422.27
2022-10-05T11:00:01.285Z,101421.73
2022-10-05T11:00:31.717Z,101416.69
2022-10-05T11:01:02.173Z,101416.70
2022-10-05T11:01:32.696Z,101420.05
2022-10-05T11:02:03.208Z,101415.51
2022-10-05T11:02:33.615Z,101418.03
2022-10-05T11:03:04.164Z,101416.02
2022-10-05T11:03:34.625Z,101417.38
2022-10-05T11:04:05.050Z,101415.51
2022-10-05T11:04:35.477Z,101419.54
2022-10-05T11:05:05.909Z,101418.84
2022-10-05T11:05:36.349Z,101418.00
2022-10-05T11:06:06.758Z,101421.66
2022-10-05T11:06:37.213Z,101418.45
2022-10-05T11:07:07.643Z,101421.08
2022-10-05T11:07:38.109Z,101418.24
2022-10-05T11:08:08.596Z,101419.91
2022-10-05T11:08:39.006Z,101413.86
2022-10-05T11:09:09.431Z,101416.34
2022-10-05T11:09:39.855Z,101414.95
2022-10-05T11:10:10.275Z,101413.58
2022-10-05T11:10:40.700Z,101417.28
2022-10-05T11:11:11.128Z,101416.59
2022-10-05T11:11:41.554Z,101413.89
2022-10-05T11:12:12.014Z,101411.56
2022-10-05T11:12:42.530Z,101408.50
2022-10-05T11:13:13.008Z,101407.83
2022-10-05T11:13:43.444Z,101407.45
2022-10-05T11:14:13.858Z,101402.40
2022-10-05T11:14:44.288Z,101403.23
2022-10-05T11:15:14.728Z,101404.93
2022-10-05T11:15:45.314Z,101405.94
2022-10-05T11:16:18.769Z,101401.06
2022-10-05T11:16:50.560Z,101402.91
2022-10-05T11:17:21.092Z,101404.42
2022-10-05T11:17:51.513Z,101405.94
2022-10-05T11:18:21.951Z,101403.44
2022-10-05T11:18:52.390Z,101401.94
2022-10-05T11:19:27.490Z,101398.22
2022-10-05T11:20:05.650Z,101402.57
2022-10-05T11:20:33.512Z,101404.25
2022-10-05T11:21:03.952Z,101401.55
2022-10-05T11:21:34.374Z,101399.17
2022-10-05T11:22:04.826Z,101398.17
2022-10-05T11:22:35.252Z,101394.97
2022-10-05T11:23:05.704Z,101390.77
2022-10-05T11:23:38.925Z,101396.28
2022-10-05T11:24:09.452Z,101394.25
2022-10-05T11:24:39.878Z,101392.88
2022-10-05T11:25:10.299Z,101393.23
2022-10-05T11:25:40.719Z,101393.73
2022-10-05T11:26:11.150Z,101395.20
2022-10-05T11:26:41.573Z,101393.34
2022-10-05T11:27:12.016Z,101390.64
2022-10-05T11:27:42.449Z,101390.31
2022-10-05T11:28:12.918Z,101388.45
2022-10-05T11:28:43.400Z,101391.80
2022-10-05T11:29:13.805Z,101387.20
2022-10-05T11:29:44.240Z,101384.55
2022-10-05T11:30:14.731Z,101385.68
2022-10-05T11:30:48.854Z,101387.69
2022-10-05T11:31:21.120Z,101387.04
2022-10-05T11:31:52.088Z,101388.90
2022-10-05T11:32:23.012Z,101394.80
2022-10-05T11:32:53.431Z,101389.25
2022-10-05T11:33:23.860Z,101390.09
2022-10-05T11:33:54.310Z,101388.45
2022-10-05T11:34:24.780Z,101391.12
2022-10-05T11:34:55.216Z,101385.44
2022-10-05T11:35:25.644Z,101386.16
2022-10-05T11:35:56.080Z,101387.18
2022-10-05T11:36:26.510Z,101387.73
2022-10-05T11:36:56.952Z,101390.05
2022-10-05T11:37:27.372Z,101387.91
2022-10-05T11:37:57.795Z,101388.70
2022-10-05T11:38:28.300Z,101393.25
2022-10-05T11:38:58.744Z,101390.09
2022-10-05T11:39:29.152Z,101389.55
2022-10-05T11:39:59.660Z,101389.37
2022-10-05T11:40:30.110Z,101388.02
2022-10-05T11:41:00.525Z,101386.66
2022-10-05T11:41:30.985Z,101385.95
2022-10-05T11:42:01.442Z,101387.98
2022-10-05T11:42:31.860Z,101380.91
2022-10-05T11:43:02.296Z,101384.95
2022-10-05T11:43:32.741Z,101381.58
2022-10-05T11:44:06.262Z,101380.06
2022-10-05T11:44:37.517Z,101380.94
2022-10-05T11:45:07.942Z,101384.00
2022-10-05T11:45:38.381Z,101383.81
2022-10-05T11:46:08.847Z,101381.27
2022-10-05T11:46:39.448Z,101381.12
2022-10-05T11:47:09.863Z,101379.94
2022-10-05T11:47:40.290Z,101378.94
2022-10-05T11:48:10.716Z,101377.59
2022-10-05T11:48:41.145Z,101382.48
2022-10-05T11:49:11.585Z,101376.38
2022-10-05T11:49:42.007Z,101371.52
2022-10-05T11:50:12.427Z,101375.88
2022-10-05T11:50:42.851Z,101371.52
2022-10-05T11:51:13.273Z,101372.37
2022-10-05T11:51:43.717Z,101373.88
2022-10-05T11:52:14.132Z,101366.48
2022-10-05T11:52:44.569Z,101368.66
2022-10-05T11:53:14.995Z,101369.50
2022-10-05T11:53:45.450Z,101368.30
2022-10-05T11:54:15.956Z,101368.31
2022-10-05T11:55:12.221Z,101364.95
2022-10-05T11:55:21.727Z,101365.62
2022-10-05T11:55:52.152Z,101368.11
2022-10-05T11:56:22.654Z,101367.79
2022-10-05T11:56:54.675Z,101367.60
2022-10-05T11:57:25.320Z,101367.30
2022-10-05T11:57:55.829Z,101365.44
2022-10-05T11:58:26.560Z,101365.11
2022-10-05T11:58:56.986Z,101366.79
2022-10-05T11:59:27.410Z,101365.75
2022-10-05T11:59:57.880Z,101362.77
2022-10-05T12:00:28.331Z,101363.44
2022-10-05T12:00:58.762Z,101365.95
2022-10-05T12:01:29.192Z,101368.28
2022-10-05T12:01:59.610Z,101369.94
2022-10-05T12:02:30.098Z,101369.75
2022-10-05T12:03:00.545Z,101366.23
2022-10-05T12:03:31.188Z,101370.39
2022-10-05T12:04:01.797Z,101368.36
2022-10-05T12:04:32.213Z,101368.19
2022-10-05T12:05:02.636Z,101364.31
2022-10-05T12:05:33.058Z,101367.12
2022-10-05T12:06:03.496Z,101369.64
2022-10-05T12:06:33.919Z,101364.10
2022-10-05T12:07:04.354Z,101364.26
2022-10-05T12:07:34.803Z,101364.08
2022-10-05T12:08:05.228Z,101363.39
2022-10-05T12:08:35.712Z,101364.41
2022-10-05T12:09:06.162Z,101360.03
2022-10-05T12:09:36.608Z,101359.19
2022-10-05T12:10:07.014Z,101363.17
2022-10-05T12:10:37.442Z,101365.88
2022-10-05T12:11:07.875Z,101360.95
2022-10-05T12:11:38.310Z,101362.31
2022-10-05T12:12:08.738Z,101363.12
2022-10-05T12:12:39.174Z,101359.09
2022-10-05T12:13:09.598Z,101359.74
2022-10-05T12:13:40.022Z,101359.40
2022-10-05T12:14:10.467Z,101355.20
2022-10-05T12:14:40.890Z,101357.06
2022-10-05T12:15:11.324Z,101354.38
2022-10-05T12:15:41.848Z,101351.66
2022-10-05T12:16:12.273Z,101354.02
2022-10-05T12:16:42.658Z,101351.66
2022-10-05T12:17:13.078Z,101352.48
2022-10-05T12:17:43.547Z,101352.82
2022-10-05T12:18:13.969Z,101352.50
2022-10-05T12:18:44.393Z,101352.64
2022-10-05T12:19:14.873Z,101344.92
2022-10-05T12:19:45.324Z,101345.23
2022-10-05T12:20:15.749Z,101342.21
2022-10-05T12:20:46.194Z,101340.34
2022-10-05T12:21:16.615Z,101339.19
2022-10-05T12:21:47.049Z,101337.67
2022-10-05T12:22:17.473Z,101338.33
2022-10-05T12:22:47.941Z,101336.97
2022-10-05T12:23:18.360Z,101340.66
2022-10-05T12:23:48.784Z,101338.83
2022-10-05T12:24:22.242Z,101335.45
2022-10-05T12:24:54.578Z,101339.50
2022-10-05T12:25:24.981Z,101337.34
2022-10-05T12:25:55.408Z,101339.89
2022-10-05T12:26:25.828Z,101338.25
2022-10-05T12:26:56.284Z,101342.61
2022-10-05T12:27:26.820Z,101343.33
2022-10-05T12:27:57.310Z,101340.49
2022-10-05T12:28:27.729Z,101343.77
2022-10-05T12:28:58.112Z,101344.27
2022-10-05T12:29:28.567Z,101341.20
2022-10-05T12:29:58.990Z,101329.27
2022-10-05T12:30:29.425Z,101335.89
2022-10-05T12:30:59.876Z,101332.73
2022-10-05T12:31:30.319Z,101328.61
2022-10-05T12:32:00.764Z,101321.31
2022-10-05T12:32:31.212Z,101322.21
2022-10-05T12:33:02.340Z,101322.16
2022-10-05T12:33:32.874Z,101319.78
2022-10-05T12:34:03.304Z,101317.77
2022-10-05T12:34:33.754Z,101315.09
2022-10-05T12:35:04.176Z,101316.42
2022-10-05T12:35:48.737Z,101319.33
2022-10-05T12:36:09.950Z,101316.52
2022-10-05T12:37:03.147Z,101318.63
2022-10-05T12:37:15.685Z,101320.20
2022-10-05T12:37:46.094Z,101320.48
2022-10-05T12:38:16.523Z,101315.88
2022-10-05T12:38:46.983Z,101322.83
2022-10-05T12:39:17.450Z,101319.13
2022-10-05T12:39:47.890Z,101322.09
2022-10-05T12:40:18.335Z,101318.88
2022-10-05T12:40:48.742Z,101321.81
2022-10-05T12:41:19.178Z,101316.59
2022-10-05T12:41:49.614Z,101318.88
2022-10-05T12:42:20.058Z,101316.84
2022-10-05T12:42:50.482Z,101316.63
2022-10-05T12:43:20.905Z,101311.89
2022-10-05T12:43:51.329Z,101310.40
2022-10-05T12:44:21.801Z,101314.06
2022-10-05T12:44:52.275Z,101315.05
2022-10-05T12:45:22.719Z,101315.36
2022-10-05T12:45:53.198Z,101313.34
2022-10-05T12:46:23.595Z,101314.48
2022-10-05T12:46:54.028Z,101319.00
2022-10-05T12:47:24.458Z,101316.65
2022-10-05T12:47:54.882Z,101313.77
2022-10-05T12:48:25.312Z,101314.42
2022-10-05T12:48:55.737Z,101314.24
2022-10-05T12:49:26.171Z,101317.75
2022-10-05T12:49:56.631Z,101317.25
2022-10-05T12:50:27.044Z,101318.27
2022-10-05T12:50:57.465Z,101316.39
2022-10-05T12:51:27.891Z,101314.69
2022-10-05T12:51:58.319Z,101316.03
2022-10-05T12:52:28.753Z,101317.20
2022-10-05T12:52:59.180Z,101317.21
2022-10-05T12:53:29.610Z,101316.69
2022-10-05T12:54:00.043Z,101318.02
2022-10-05T12:54:30.482Z,101314.70
2022-10-05T12:55:00.933Z,101317.03
2022-10-05T12:55:31.380Z,101319.50
2022-10-05T12:56:01.779Z,101313.45
2022-10-05T12:56:32.201Z,101316.98
2022-10-05T12:57:02.642Z,101318.81
2022-10-05T12:57:33.066Z,101316.47
2022-10-05T12:58:03.493Z,101312.11
2022-10-05T12:58:33.917Z,101317.62
2022-10-05T12:59:04.338Z,101314.27
2022-10-05T12:59:34.846Z,101316.97
2022-10-05T13:00:05.296Z,101315.42
2022-10-05T13:00:35.798Z,101314.25
2022-10-05T13:01:06.213Z,101317.45
2022-10-05T13:01:36.703Z,101315.76
2022-10-05T13:02:07.153Z,101313.22
2022-10-05T13:02:37.559Z,101315.94
2022-10-05T13:03:07.983Z,101309.55
2022-10-05T13:03:38.415Z,101310.72
2022-10-05T13:04:08.862Z,101314.09
2022-10-05T13:04:39.299Z,101309.38
2022-10-05T13:05:09.812Z,101309.04
2022-10-05T13:05:40.232Z,101307.69
2022-10-05T13:06:11.017Z,101308.34
2022-10-05T13:06:41.596Z,101312.52
2022-10-05T13:07:12.035Z,101306.64
2022-10-05T13:07:42.550Z,101304.95
2022-10-05T13:08:12.968Z,101306.27
2022-10-05T13:08:43.398Z,101309.48
2022-10-05T13:09:13.817Z,101308.13
2022-10-05T13:09:44.250Z,101311.12
2022-10-05T13:10:14.693Z,101307.91
2022-10-05T13:10:45.153Z,101309.41
2022-10-05T13:11:15.563Z,101305.23
2022-10-05T13:11:45.985Z,101310.77
2022-10-05T13:12:16.409Z,101309.42
2022-10-05T13:12:46.842Z,101307.96
2022-10-05T13:13:17.265Z,101306.95
2022-10-05T13:13:47.709Z,101311.83
2022-10-05T13:14:18.139Z,101309.45
2022-10-05T13:14:48.581Z,101312.81
2022-10-05T13:15:19.043Z,101310.48
2022-10-05T13:15:49.454Z,101312.14
2022-10-05T13:16:19.969Z,101311.32
2022-10-05T13:16:54.777Z,101312.27
2022-10-05T13:17:25.539Z,101314.81
2022-10-05T13:17:55.962Z,101309.25
2022-10-05T13:18:26.386Z,101314.12
2022-10-05T13:18:56.811Z,101309.80
2022-10-05T13:19:27.242Z,101311.78
2022-10-05T13:19:57.667Z,101308.94
2022-10-05T13:20:28.118Z,101314.31
2022-10-05T13:20:58.536Z,101307.61
2022-10-05T13:21:29.010Z,101307.23
2022-10-05T13:21:59.430Z,101311.63
2022-10-05T13:22:29.851Z,101312.00
2022-10-05T13:23:00.280Z,101314.86
2022-10-05T13:23:30.702Z,101311.66
2022-10-05T13:24:01.147Z,101309.11
2022-10-05T13:24:31.578Z,101310.59
2022-10-05T13:25:02.007Z,101314.95
2022-10-05T13:25:32.447Z,101312.11
2022-10-05T13:26:02.886Z,101308.09
2022-10-05T13:26:33.311Z,101307.06
2022-10-05T13:27:03.732Z,101308.91
2022-10-05T13:27:34.180Z,101309.41
2022-10-05T13:28:04.729Z,101308.58
2022-10-05T13:28:35.219Z,101307.72
2022-10-05T13:29:05.650Z,101305.71
2022-10-05T13:29:36.069Z,101307.58
2022-10-05T13:30:06.547Z,101306.39
2022-10-05T13:30:36.965Z,101302.55
2022-10-05T13:31:07.409Z,101307.23
2022-10-05T13:31:38.065Z,101302.36
2022-10-05T13:32:08.498Z,101305.38
2022-10-05T13:32:38.915Z,101302.03
2022-10-05T13:33:09.362Z,101305.52
2022-10-05T13:33:39.786Z,101304.88
2022-10-05T13:34:10.221Z,101302.03
2022-10-05T13:34:40.697Z,101301.36
2022-10-05T13:35:11.757Z,101305.88
2022-10-05T13:35:42.190Z,101305.38
2022-10-05T13:36:12.935Z,101299.82
2022-10-05T13:36:43.493Z,101303.69
2022-10-05T13:37:13.915Z,101302.31
2022-10-05T13:37:44.351Z,101302.00
2022-10-05T13:38:14.808Z,101301.83
2022-10-05T13:38:45.239Z,101294.93
2022-10-05T13:39:15.664Z,101292.56
2022-10-05T13:39:46.087Z,101296.09
2022-10-05T13:40:16.512Z,101295.11
2022-10-05T13:40:46.960Z,101294.50
2022-10-05T13:41:17.413Z,101294.17
2022-10-05T13:41:47.832Z,101297.88
2022-10-05T13:42:18.222Z,101289.50
2022-10-05T13:42:48.644Z,101295.92
2022-10-05T13:43:19.066Z,101297.75
2022-10-05T13:43:49.491Z,101295.69
2022-10-05T13:44:19.925Z,101290.96
2022-10-05T13:44:50.350Z,101286.91
2022-10-05T13:45:20.781Z,101291.47
2022-10-05T13:45:54.190Z,101285.95
2022-10-05T13:46:26.588Z,101287.50
2022-10-05T13:46:57.070Z,101286.30
2022-10-05T13:47:27.470Z,101292.88
2022-10-05T13:47:57.909Z,101292.19
2022-10-05T13:48:28.331Z,101289.50
2022-10-05T13:48:58.761Z,101287.15
2022-10-05T13:49:29.224Z,101290.04
2022-10-05T13:49:59.650Z,101283.20
2022-10-05T13:50:33.404Z,101291.59
2022-10-05T13:51:04.182Z,101289.28
2022-10-05T13:51:34.612Z,101288.64
2022-10-05T13:52:05.034Z,101286.45
2022-10-05T13:52:35.467Z,101285.61
2022-10-05T13:53:05.900Z,101282.02
2022-10-05T13:53:36.323Z,101284.38
2022-10-05T13:54:06.755Z,101285.75